sensor_id;sensor_type;location;lat;lon;timestamp;pressure;altitude;pressure_sealevel;temperature;humidity
78444;BME280;67739;52.986;8.894;2023-03-12T00:01:11;101287.34;;;-1.77;81.97
78444;BME280;67739;52.986;8.894;2023-03-12T00:03:37;101289.06;;;-1.79;81.88
78444;BME280;67739;52.986;8.894;2023-03-12T00:06:04;101287.31;;;-1.80;81.71
78444;BME280;67739;52.986;8.894;2023-03-12T00:08:30;101279.41;;;-1.82;82.01
78444;BME280;67739;52.986;8.894;2023-03-12T00:10:55;101285.50;;;-1.84;81.79
78444;BME280;67739;52.986;8.894;2023-03-12T00:13:20;101274.94;;;-1.87;81.74
78444;BME280;67739;52.986;8.894;2023-03-12T00:15:46;101279.34;;;-1.89;82.04
78444;BME280;67739;52.986;8.894;2023-03-12T00:18:11;101279.31;;;-1.91;81.97
78444;BME280;67739;52.986;8.894;2023-03-12T00:20:36;101270.53;;;-1.93;82.12
78444;BME280;67739;52.986;8.894;2023-03-12T00:23:01;101281.91;;;-1.94;82.20
78444;BME280;67739;52.986;8.894;2023-03-12T00:25:27;101274.88;;;-1.96;82.15
78444;BME280;67739;52.986;8.894;2023-03-12T00:27:52;101276.59;;;-1.98;82.04
78444;BME280;67739;52.986;8.894;2023-03-12T00:30:17;101274.81;;;-2.02;82.15
78444;BME280;67739;52.986;8.894;2023-03-12T00:32:43;101284.44;;;-2.04;82.10
78444;BME280;67739;52.986;8.894;2023-03-12T00:35:09;101269.50;;;-2.08;81.87
78444;BME280;67739;52.986;8.894;2023-03-12T00:37:35;101275.59;;;-2.11;82.14
78444;BME280;67739;52.986;8.894;2023-03-12T00:40:01;101267.66;;;-2.14;81.98
78444;BME280;67739;52.986;8.894;2023-03-12T00:42:29;101277.28;;;-2.16;81.91
78444;BME280;67739;52.986;8.894;2023-03-12T00:44:54;101277.25;;;-2.19;81.94
78444;BME280;67739;52.986;8.894;2023-03-12T00:47:20;101270.22;;;-2.22;82.22
78444;BME280;67739;52.986;8.894;2023-03-12T00:49:45;101275.47;;;-2.23;82.40
78444;BME280;67739;52.986;8.894;2023-03-12T00:52:10;101270.16;;;-2.26;82.07
78444;BME280;67739;52.986;8.894;2023-03-12T00:54:36;101271.88;;;-2.28;82.33
78444;BME280;67739;52.986;8.894;2023-03-12T00:57:01;101265.72;;;-2.30;81.90
78444;BME280;67739;52.986;8.894;2023-03-12T00:59:27;101262.19;;;-2.34;81.96
78444;BME280;67739;52.986;8.894;2023-03-12T01:01:52;101268.31;;;-2.36;82.23
78444;BME280;67739;52.986;8.894;2023-03-12T01:04:18;101272.66;;;-2.38;82.10
78444;BME280;67739;52.986;8.894;2023-03-12T01:06:43;101262.13;;;-2.40;82.20
78444;BME280;67739;52.986;8.894;2023-03-12T01:09:09;101266.44;;;-2.43;82.06
78444;BME280;67739;52.986;8.894;2023-03-12T01:11:36;101264.69;;;-2.44;82.23
78444;BME280;67739;52.986;8.894;2023-03-12T01:14:03;101274.31;;;-2.46;81.83
78444;BME280;67739;52.986;8.894;2023-03-12T01:16:29;101265.50;;;-2.50;81.85
78444;BME280;67739;52.986;8.894;2023-03-12T01:18:56;101272.47;;;-2.52;81.83
78444;BME280;67739;52.986;8.894;2023-03-12T01:21:22;101280.31;;;-2.55;82.11
78444;BME280;67739;52.986;8.894;2023-03-12T01:23:48;101273.28;;;-2.58;81.84
78444;BME280;67739;52.986;8.894;2023-03-12T01:26:14;101274.16;;;-2.60;81.65
78444;BME280;67739;52.986;8.894;2023-03-12T01:28:39;101271.47;;;-2.63;81.80
78444;BME280;67739;52.986;8.894;2023-03-12T01:31:09;101265.31;;;-2.65;81.81
78444;BME280;67739;52.986;8.894;2023-03-12T01:33:35;101261.78;;;-2.67;82.03
78444;BME280;67739;52.986;8.894;2023-03-12T01:36:00;101267.88;;;-2.70;82.13
78444;BME280;67739;52.986;8.894;2023-03-12T01:38:25;101268.72;;;-2.71;82.11
78444;BME280;67739;52.986;8.894;2023-03-12T01:40:51;101265.22;;;-2.71;81.93
78444;BME280;67739;52.986;8.894;2023-03-12T01:48:18;101264.28;;;-2.78;81.65
78444;BME280;67739;52.986;8.894;2023-03-12T01:50:44;101270.34;;;-2.82;81.88
78444;BME280;67739;52.986;8.894;2023-03-12T01:53:10;101272.06;;;-2.84;81.65
78444;BME280;67739;52.986;8.894;2023-03-12T01:55:35;101257.13;;;-2.87;81.96
78444;BME280;67739;52.986;8.894;2023-03-12T01:58:01;101262.38;;;-2.90;81.62
78444;BME280;67739;52.986;8.894;2023-03-12T02:00:26;101269.34;;;-2.90;81.52
78444;BME280;67739;52.986;8.894;2023-03-12T02:02:54;101257.94;;;-2.94;81.88
78444;BME280;67739;52.986;8.894;2023-03-12T02:08:03;101258.75;;;-2.96;81.69
78444;BME280;67739;52.986;8.894;2023-03-12T02:10:28;101259.59;;;-2.99;81.86
78444;BME280;67739;52.986;8.894;2023-03-12T02:12:54;101256.94;;;-3.00;81.84
78444;BME280;67739;52.986;8.894;2023-03-12T02:15:19;101255.16;;;-3.03;81.93
78444;BME280;67739;52.986;8.894;2023-03-12T02:17:45;101249.91;;;-3.04;81.86
78444;BME280;67739;52.986;8.894;2023-03-12T02:22:50;101248.09;;;-3.08;81.94
78444;BME280;67739;52.986;8.894;2023-03-12T02:25:30;101252.47;;;-3.09;82.23
78444;BME280;67739;52.986;8.894;2023-03-12T02:28:02;101245.38;;;-3.13;82.50
78444;BME280;67739;52.986;8.894;2023-03-12T02:30:29;101250.63;;;-3.14;82.56
78444;BME280;67739;52.986;8.894;2023-03-12T02:32:57;101251.47;;;-3.18;82.99
78444;BME280;67739;52.986;8.894;2023-03-12T02:35:23;101257.53;;;-3.21;83.47
78444;BME280;67739;52.986;8.894;2023-03-12T02:37:51;101255.75;;;-3.22;83.39
78444;BME280;67739;52.986;8.894;2023-03-12T02:40:28;101258.41;;;-3.21;84.18
78444;BME280;67739;52.986;8.894;2023-03-12T02:42:56;101252.31;;;-3.19;84.14
78444;BME280;67739;52.986;8.894;2023-03-12T02:45:22;101254.06;;;-3.18;84.44
78444;BME280;67739;52.986;8.894;2023-03-12T02:47:49;101254.97;;;-3.16;84.56
78444;BME280;67739;52.986;8.894;2023-03-12T02:50:14;101256.72;;;-3.15;84.47
78444;BME280;67739;52.986;8.894;2023-03-12T02:52:40;101251.50;;;-3.14;84.99
78444;BME280;67739;52.986;8.894;2023-03-12T02:55:05;101253.25;;;-3.13;84.77
78444;BME280;67739;52.986;8.894;2023-03-12T02:57:31;101252.38;;;-3.13;84.76
78444;BME280;67739;52.986;8.894;2023-03-12T02:59:57;101246.28;;;-3.12;84.84
78444;BME280;67739;52.986;8.894;2023-03-12T03:02:22;101252.41;;;-3.12;85.03
78444;BME280;67739;52.986;8.894;2023-03-12T03:04:48;101248.91;;;-3.12;84.89
78444;BME280;67739;52.986;8.894;2023-03-12T03:07:14;101248.03;;;-3.11;85.24
78444;BME280;67739;52.986;8.894;2023-03-12T03:09:39;101249.78;;;-3.12;84.72
78444;BME280;67739;52.986;8.894;2023-03-12T03:12:05;101248.00;;;-3.14;84.81
78444;BME280;67739;52.986;8.894;2023-03-12T03:14:31;101240.09;;;-3.17;84.58
78444;BME280;67739;52.986;8.894;2023-03-12T03:16:56;101243.59;;;-3.18;84.29
78444;BME280;67739;52.986;8.894;2023-03-12T03:19:22;101240.91;;;-3.22;84.24
78444;BME280;67739;52.986;8.894;2023-03-12T03:21:47;101234.75;;;-3.24;83.82
78444;BME280;67739;52.986;8.894;2023-03-12T03:24:13;101237.28;;;-3.28;83.98
78444;BME280;67739;52.986;8.894;2023-03-12T03:26:38;101244.25;;;-3.30;83.67
78444;BME280;67739;52.986;8.894;2023-03-12T03:29:04;101243.34;;;-3.34;84.02
78444;BME280;67739;52.986;8.894;2023-03-12T03:31:29;101239.81;;;-3.36;83.50
78444;BME280;67739;52.986;8.894;2023-03-12T03:33:54;101236.25;;;-3.39;83.86
78444;BME280;67739;52.986;8.894;2023-03-12T03:36:20;101237.09;;;-3.42;83.79
78444;BME280;67739;52.986;8.894;2023-03-12T03:38:47;101235.25;;;-3.46;83.56
78444;BME280;67739;52.986;8.894;2023-03-12T03:41:16;101233.53;;;-3.47;83.55
78444;BME280;67739;52.986;8.894;2023-03-12T03:43:42;101234.38;;;-3.48;83.88
78444;BME280;67739;52.986;8.894;2023-03-12T03:46:07;101244.03;;;-3.47;84.13
78444;BME280;67739;52.986;8.894;2023-03-12T03:48:32;101244.03;;;-3.47;84.26
78444;BME280;67739;52.986;8.894;2023-03-12T03:51:02;101246.66;;;-3.47;84.48
78444;BME280;67739;52.986;8.894;2023-03-12T03:53:27;101245.75;;;-3.47;84.65
78444;BME280;67739;52.986;8.894;2023-03-12T03:55:53;101242.28;;;-3.46;84.84
78444;BME280;67739;52.986;8.894;2023-03-12T03:58:18;101246.63;;;-3.45;84.97
78444;BME280;67739;52.986;8.894;2023-03-12T04:00:44;101240.50;;;-3.46;85.06
78444;BME280;67739;52.986;8.894;2023-03-12T04:03:10;101244.03;;;-3.47;85.16
78444;BME280;67739;52.986;8.894;2023-03-12T04:05:35;101234.38;;;-3.48;84.90
78444;BME280;67739;52.986;8.894;2023-03-12T04:08:01;101233.53;;;-3.47;85.32
78444;BME280;67739;52.986;8.894;2023-03-12T04:10:28;101239.66;;;-3.46;85.30
78444;BME280;67739;52.986;8.894;2023-03-12T04:12:53;101228.31;;;-3.44;85.55
78444;BME280;67739;52.986;8.894;2023-03-12T04:15:19;101229.25;;;-3.40;85.47
78444;BME280;67739;52.986;8.894;2023-03-12T04:17:44;101239.78;;;-3.37;85.73
78444;BME280;67739;52.986;8.894;2023-03-12T04:20:10;101232.84;;;-3.34;86.23
78444;BME280;67739;52.986;8.894;2023-03-12T04:22:35;101231.13;;;-3.30;86.00
78444;BME280;67739;52.986;8.894;2023-03-12T04:25:01;101233.81;;;-3.27;86.11
78444;BME280;67739;52.986;8.894;2023-03-12T04:27:26;101233.84;;;-3.26;86.01
78444;BME280;67739;52.986;8.894;2023-03-12T04:29:52;101233.88;;;-3.24;86.24
78444;BME280;67739;52.986;8.894;2023-03-12T04:32:17;101223.41;;;-3.23;86.27
78444;BME280;67739;52.986;8.894;2023-03-12T04:34:43;101229.53;;;-3.22;86.87
78444;BME280;67739;52.986;8.894;2023-03-12T04:37:08;101216.44;;;-3.21;86.95
78444;BME280;67739;52.986;8.894;2023-03-12T04:39:38;101216.47;;;-3.19;86.82
78444;BME280;67739;52.986;8.894;2023-03-12T04:42:03;101219.09;;;-3.17;87.02
78444;BME280;67739;52.986;8.894;2023-03-12T04:44:29;101208.63;;;-3.17;87.01
78444;BME280;67739;52.986;8.894;2023-03-12T04:46:54;101208.63;;;-3.17;86.80
78444;BME280;67739;52.986;8.894;2023-03-12T04:49:19;101207.72;;;-3.18;87.08
78444;BME280;67739;52.986;8.894;2023-03-12T04:51:45;101200.75;;;-3.17;86.99
78444;BME280;67739;52.986;8.894;2023-03-12T04:54:10;101207.72;;;-3.16;87.09
78444;BME280;67739;52.986;8.894;2023-03-12T04:56:35;101212.13;;;-3.15;87.02
78444;BME280;67739;52.986;8.894;2023-03-12T04:59:01;101212.13;;;-3.15;87.03
78444;BME280;67739;52.986;8.894;2023-03-12T05:01:29;101202.47;;;-3.16;86.84
78444;BME280;67739;52.986;8.894;2023-03-12T05:03:55;101201.59;;;-3.17;87.16
78444;BME280;67739;52.986;8.894;2023-03-12T05:06:21;101199.84;;;-3.19;86.71
78444;BME280;67739;52.986;8.894;2023-03-12T05:08:48;101202.41;;;-3.23;86.75
78444;BME280;67739;52.986;8.894;2023-03-12T05:11:14;101198.88;;;-3.25;86.77
78444;BME280;67739;52.986;8.894;2023-03-12T05:13:40;101197.09;;;-3.26;86.81
78444;BME280;67739;52.986;8.894;2023-03-12T05:16:06;101189.22;;;-3.27;86.77
78444;BME280;67739;52.986;8.894;2023-03-12T05:18:31;101180.47;;;-3.28;87.36
78444;BME280;67739;52.986;8.894;2023-03-12T05:21:01;101186.63;;;-3.24;87.22
78444;BME280;67739;52.986;8.894;2023-03-12T05:23:28;101177.94;;;-3.22;87.57
78444;BME280;67739;52.986;8.894;2023-03-12T05:25:53;101181.50;;;-3.18;87.55
78444;BME280;67739;52.986;8.894;2023-03-12T05:28:18;101172.81;;;-3.12;87.69
78444;BME280;67739;52.986;8.894;2023-03-12T05:30:44;101171.09;;;-3.09;87.62
78444;BME280;67739;52.986;8.894;2023-03-12T05:33:10;101169.41;;;-3.05;87.55
78444;BME280;67739;52.986;8.894;2023-03-12T05:35:36;101170.31;;;-3.03;87.82
78444;BME280;67739;52.986;8.894;2023-03-12T05:38:01;101161.56;;;-3.01;87.80
78444;BME280;67739;52.986;8.894;2023-03-12T05:40:27;101166.88;;;-2.98;87.79
78444;BME280;67739;52.986;8.894;2023-03-12T05:42:52;101157.31;;;-2.94;87.63
78444;BME280;67739;52.986;8.894;2023-03-12T05:45:17;101148.59;;;-2.92;87.71
78444;BME280;67739;52.986;8.894;2023-03-12T05:47:44;101159.13;;;-2.87;88.00
78444;BME280;67739;52.986;8.894;2023-03-12T05:50:10;101150.44;;;-2.83;87.97
78444;BME280;67739;52.986;8.894;2023-03-12T05:52:35;101156.59;;;-2.79;87.86
78444;BME280;67739;52.986;8.894;2023-03-12T05:55:01;101147.91;;;-2.75;88.10
78444;BME280;67739;52.986;8.894;2023-03-12T05:57:26;101150.53;;;-2.72;87.87
78444;BME280;67739;52.986;8.894;2023-03-12T05:59:52;101155.00;;;-2.67;88.21
78444;BME280;67739;52.986;8.894;2023-03-12T06:02:17;101152.44;;;-2.62;87.96
78444;BME280;67739;52.986;8.894;2023-03-12T06:04:42;101157.72;;;-2.58;87.96
78444;BME280;67739;52.986;8.894;2023-03-12T06:07:10;101148.16;;;-2.53;88.33
78444;BME280;67739;52.986;8.894;2023-03-12T06:09:36;101152.56;;;-2.48;88.13
78444;BME280;67739;52.986;8.894;2023-03-12T06:12:01;101141.22;;;-2.44;88.11
78444;BME280;67739;52.986;8.894;2023-03-12T06:14:26;101147.41;;;-2.39;88.24
78444;BME280;67739;52.986;8.894;2023-03-12T06:16:53;101146.56;;;-2.35;88.53
78444;BME280;67739;52.986;8.894;2023-03-12T06:19:18;101144.03;;;-2.26;88.54
78444;BME280;67739;52.986;8.894;2023-03-12T06:21:43;101153.75;;;-2.19;88.80
78444;BME280;67739;52.986;8.894;2023-03-12T06:24:09;101145.91;;;-2.13;88.78
78444;BME280;67739;52.986;8.894;2023-03-12T06:26:34;101138.97;;;-2.05;88.80
78444;BME280;67739;52.986;8.894;2023-03-12T06:29:00;101133.75;;;-1.99;88.85
78444;BME280;67739;52.986;8.894;2023-03-12T06:31:25;101139.06;;;-1.94;88.73
78444;BME280;67739;52.986;8.894;2023-03-12T06:33:51;101127.72;;;-1.89;88.53
78444;BME280;67739;52.986;8.894;2023-03-12T06:36:18;101133.00;;;-1.83;88.71
78444;BME280;67739;52.986;8.894;2023-03-12T06:38:43;101124.28;;;-1.77;88.49
78444;BME280;67739;52.986;8.894;2023-03-12T06:41:14;101131.31;;;-1.73;88.30
78444;BME280;67739;52.986;8.894;2023-03-12T06:43:40;101128.72;;;-1.70;88.12
78444;BME280;67739;52.986;8.894;2023-03-12T06:46:07;101118.22;;;-1.67;87.88
78444;BME280;67739;52.986;8.894;2023-03-12T06:48:32;101114.72;;;-1.64;87.78
78444;BME280;67739;52.986;8.894;2023-03-12T06:51:01;101127.06;;;-1.56;88.35
78444;BME280;67739;52.986;8.894;2023-03-12T06:53:27;101121.84;;;-1.48;88.43
78444;BME280;67739;52.986;8.894;2023-03-12T06:55:55;101109.63;;;-1.37;88.85
78444;BME280;67739;52.986;8.894;2023-03-12T06:58:20;101111.44;;;-1.25;89.34
78444;BME280;67739;52.986;8.894;2023-03-12T07:00:46;101102.72;;;-1.12;89.23
78444;BME280;67739;52.986;8.894;2023-03-12T07:03:11;101104.53;;;-0.99;89.15
78444;BME280;67739;52.986;8.894;2023-03-12T07:05:37;101110.72;;;-0.86;88.79
78444;BME280;67739;52.986;8.894;2023-03-12T07:08:02;101109.03;;;-0.74;88.98
78444;BME280;67739;52.986;8.894;2023-03-12T07:10:28;101114.31;;;-0.60;88.85
78444;BME280;67739;52.986;8.894;2023-03-12T07:12:54;101116.09;;;-0.48;88.62
78444;BME280;67739;52.986;8.894;2023-03-12T07:15:20;101114.34;;;-0.39;87.72
78444;BME280;67739;52.986;8.894;2023-03-12T07:17:46;101114.38;;;-0.31;87.08
78444;BME280;67739;52.986;8.894;2023-03-12T07:20:12;101121.38;;;-0.27;86.60
78444;BME280;67739;52.986;8.894;2023-03-12T07:22:37;101105.59;;;-0.21;86.28
78444;BME280;67739;52.986;8.894;2023-03-12T07:25:03;101102.06;;;-0.14;86.12
78444;BME280;67739;52.986;8.894;2023-03-12T07:27:28;101095.06;;;-0.06;86.35
78444;BME280;67739;52.986;8.894;2023-03-12T07:29:54;101095.03;;;0.10;86.54
78444;BME280;67739;52.986;8.894;2023-03-12T07:32:19;101086.22;;;0.27;87.12
78444;BME280;67739;52.986;8.894;2023-03-12T07:34:44;101090.56;;;0.48;86.67
78444;BME280;67739;52.986;8.894;2023-03-12T07:37:10;101081.72;;;0.69;86.09
78444;BME280;67739;52.986;8.894;2023-03-12T07:39:35;101083.41;;;0.88;85.05
78444;BME280;67739;52.986;8.894;2023-03-12T07:42:00;101073.66;;;1.02;83.86
78444;BME280;67739;52.986;8.894;2023-03-12T07:44:26;101076.25;;;1.12;82.90
78444;BME280;67739;52.986;8.894;2023-03-12T07:46:52;101077.09;;;1.20;81.25
78444;BME280;67739;52.986;8.894;2023-03-12T07:49:18;101082.38;;;1.21;80.29
78444;BME280;67739;52.986;8.894;2023-03-12T07:51:44;101080.59;;;1.20;79.19
78444;BME280;67739;52.986;8.894;2023-03-12T07:54:09;101077.09;;;1.18;78.42
78444;BME280;67739;52.986;8.894;2023-03-12T07:56:34;101079.78;;;1.15;77.96
78444;BME280;67739;52.986;8.894;2023-03-12T07:58:59;101087.72;;;1.12;77.95
78444;BME280;67739;52.986;8.894;2023-03-12T08:01:25;101090.34;;;1.14;77.90
78444;BME280;67739;52.986;8.894;2023-03-12T08:03:58;101085.03;;;1.17;77.96
78444;BME280;67739;52.986;8.894;2023-03-12T08:06:24;101091.16;;;1.23;78.32
78444;BME280;67739;52.986;8.894;2023-03-12T08:08:49;101097.28;;;1.33;78.10
78444;BME280;67739;52.986;8.894;2023-03-12T08:11:14;101086.66;;;1.40;77.65
78444;BME280;67739;52.986;8.894;2023-03-12T08:13:40;101097.19;;;1.48;77.06
78444;BME280;67739;52.986;8.894;2023-03-12T08:16:08;101093.63;;;1.54;76.65
78444;BME280;67739;52.986;8.894;2023-03-12T08:18:33;101094.44;;;1.60;76.76
78444;BME280;67739;52.986;8.894;2023-03-12T08:20:59;101090.88;;;1.69;76.25
78444;BME280;67739;52.986;8.894;2023-03-12T08:23:24;101093.44;;;1.80;76.45
78444;BME280;67739;52.986;8.894;2023-03-12T08:25:50;101091.59;;;1.91;75.96
78444;BME280;67739;52.986;8.894;2023-03-12T08:28:16;101088.81;;;2.03;75.83
78444;BME280;67739;52.986;8.894;2023-03-12T08:30:50;101071.94;;;2.18;75.88
78444;BME280;67739;52.986;8.894;2023-03-12T08:33:16;101074.38;;;2.39;75.57
78444;BME280;67739;52.986;8.894;2023-03-12T08:35:41;101063.53;;;2.62;74.59
78444;BME280;67739;52.986;8.894;2023-03-12T08:38:06;101068.63;;;2.78;72.77
78444;BME280;67739;52.986;8.894;2023-03-12T08:40:32;101064.06;;;2.91;71.86
78444;BME280;67739;52.986;8.894;2023-03-12T08:42:57;101061.22;;;3.06;71.70
78444;BME280;67739;52.986;8.894;2023-03-12T08:45:23;101063.66;;;3.22;70.68
78444;BME280;67739;52.986;8.894;2023-03-12T08:47:48;101055.50;;;3.35;70.15
78444;BME280;67739;52.986;8.894;2023-03-12T08:50:14;101057.06;;;3.48;68.49
78444;BME280;67739;52.986;8.894;2023-03-12T08:52:41;101054.31;;;3.56;68.44
78444;BME280;67739;52.986;8.894;2023-03-12T08:55:08;101055.94;;;3.66;67.41
78444;BME280;67739;52.986;8.894;2023-03-12T08:57:33;101055.84;;;3.72;67.38
78444;BME280;67739;52.986;8.894;2023-03-12T08:59:59;101048.63;;;3.80;66.49
78444;BME280;67739;52.986;8.894;2023-03-12T09:02:24;101036.16;;;3.85;66.32
78444;BME280;67739;52.986;8.894;2023-03-12T09:04:50;101026.31;;;3.90;66.33
78444;BME280;67739;52.986;8.894;2023-03-12T09:07:15;101030.56;;;4.02;66.29
78444;BME280;67739;52.986;8.894;2023-03-12T09:09:46;101031.97;;;4.21;65.80
78444;BME280;67739;52.986;8.894;2023-03-12T09:12:11;101037.94;;;4.34;64.34
78444;BME280;67739;52.986;8.894;2023-03-12T09:14:36;101031.59;;;4.41;63.52
78444;BME280;67739;52.986;8.894;2023-03-12T09:17:02;101018.34;;;4.40;62.96
78444;BME280;67739;52.986;8.894;2023-03-12T09:19:28;101022.88;;;4.35;62.95
78444;BME280;67739;52.986;8.894;2023-03-12T09:21:53;101025.66;;;4.29;63.43
78444;BME280;67739;52.986;8.894;2023-03-12T09:24:19;101012.47;;;4.24;63.93
78444;BME280;67739;52.986;8.894;2023-03-12T09:26:44;100999.16;;;4.25;65.00
78444;BME280;67739;52.986;8.894;2023-03-12T09:29:10;100992.78;;;4.34;64.95
78444;BME280;67739;52.986;8.894;2023-03-12T09:31:35;100980.25;;;4.42;64.52
78444;BME280;67739;52.986;8.894;2023-03-12T09:34:01;100989.72;;;4.55;64.34
78444;BME280;67739;52.986;8.894;2023-03-12T09:36:27;100985.00;;;4.68;64.01
78444;BME280;67739;52.986;8.894;2023-03-12T09:38:53;100977.66;;;4.81;63.49
78444;BME280;67739;52.986;8.894;2023-03-12T09:41:21;100966.88;;;4.88;62.36
78444;BME280;67739;52.986;8.894;2023-03-12T09:44:01;100965.84;;;4.94;62.47
78444;BME280;67739;52.986;8.894;2023-03-12T09:46:50;100952.47;;;4.97;61.26
78444;BME280;67739;52.986;8.894;2023-03-12T09:49:25;100950.69;;;4.97;61.29
78444;BME280;67739;52.986;8.894;2023-03-12T09:51:56;100952.41;;;5.00;61.61
78444;BME280;67739;52.986;8.894;2023-03-12T09:57:02;100933.88;;;4.97;61.17
78444;BME280;67739;52.986;8.894;2023-03-12T09:59:28;100942.63;;;5.02;61.59
78444;BME280;67739;52.986;8.894;2023-03-12T10:01:55;100926.41;;;5.13;61.39
78444;BME280;67739;52.986;8.894;2023-03-12T10:04:41;100923.41;;;5.26;60.50
78444;BME280;67739;52.986;8.894;2023-03-12T10:22:54;100909.16;;;6.29;57.38
78444;BME280;67739;52.986;8.894;2023-03-12T10:25:54;100896.41;;;6.41;56.96
78444;BME280;67739;52.986;8.894;2023-03-12T10:28:43;100882.00;;;6.48;57.77
78444;BME280;67739;52.986;8.894;2023-03-12T10:31:17;100873.59;;;6.61;57.73
78444;BME280;67739;52.986;8.894;2023-03-12T10:33:50;100856.94;;;6.81;57.11
78444;BME280;67739;52.986;8.894;2023-03-12T10:36:20;100857.41;;;6.94;56.48
78444;BME280;67739;52.986;8.894;2023-03-12T10:38:47;100862.44;;;7.04;56.39
78444;BME280;67739;52.986;8.894;2023-03-12T10:41:19;100860.22;;;7.17;56.79
78444;BME280;67739;52.986;8.894;2023-03-12T10:43:45;100858.91;;;7.30;55.96
78444;BME280;67739;52.986;8.894;2023-03-12T10:48:39;100862.16;;;7.38;54.92
78444;BME280;67739;52.986;8.894;2023-03-12T10:51:07;100850.00;;;7.30;54.33
78444;BME280;67739;52.986;8.894;2023-03-12T10:53:43;100840.69;;;7.17;53.63
78444;BME280;67739;52.986;8.894;2023-03-12T10:56:19;100840.09;;;7.07;54.83
78444;BME280;67739;52.986;8.894;2023-03-12T10:58:49;100844.97;;;6.94;55.13
78444;BME280;67739;52.986;8.894;2023-03-12T11:01:20;100849.16;;;6.75;55.12
78444;BME280;67739;52.986;8.894;2023-03-12T11:03:46;100846.19;;;6.56;55.44
78444;BME280;67739;52.986;8.894;2023-03-12T11:06:21;100840.41;;;6.42;56.38
78444;BME280;67739;52.986;8.894;2023-03-12T11:09:26;100844.03;;;6.39;56.65
78444;BME280;67739;52.986;8.894;2023-03-12T11:11:52;100843.91;;;6.44;57.27
78444;BME280;67739;52.986;8.894;2023-03-12T11:14:23;100837.13;;;6.34;55.39
78444;BME280;67739;52.986;8.894;2023-03-12T11:16:49;100838.59;;;6.13;56.53
78444;BME280;67739;52.986;8.894;2023-03-12T11:19:32;100827.56;;;5.96;58.11
78444;BME280;67739;52.986;8.894;2023-03-12T11:22:05;100837.78;;;5.79;58.41
78444;BME280;67739;52.986;8.894;2023-03-12T11:24:32;100835.50;;;5.65;59.67
78444;BME280;67739;52.986;8.894;2023-03-12T11:27:05;100851.00;;;5.49;60.56
78444;BME280;67739;52.986;8.894;2023-03-12T11:29:42;100847.97;;;5.30;62.07
78444;BME280;67739;52.986;8.894;2023-03-12T11:34:41;100853.44;;;4.89;65.44
78444;BME280;67739;52.986;8.894;2023-03-12T11:37:29;100845.13;;;4.66;66.79
78444;BME280;67739;52.986;8.894;2023-03-12T11:43:06;100834.34;;;4.33;67.65
78444;BME280;67739;52.986;8.894;2023-03-12T11:48:30;100812.00;;;4.03;71.01
78444;BME280;67739;52.986;8.894;2023-03-12T11:51:20;100818.31;;;3.98;71.18
78444;BME280;67739;52.986;8.894;2023-03-12T11:56:52;100812.66;;;3.71;72.10
78444;BME280;67739;52.986;8.894;2023-03-12T12:05:07;100792.75;;;3.49;75.06
78444;BME280;67739;52.986;8.894;2023-03-12T12:10:33;100779.66;;;3.40;75.43
78444;BME280;67739;52.986;8.894;2023-03-12T12:16:22;100770.06;;;3.33;75.83
78444;BME280;67739;52.986;8.894;2023-03-12T12:22:07;100755.16;;;3.29;76.58
78444;BME280;67739;52.986;8.894;2023-03-12T12:27:28;100753.47;;;3.23;76.83
78444;BME280;67739;52.986;8.894;2023-03-12T12:30:08;100744.69;;;3.19;77.18
78444;BME280;67739;52.986;8.894;2023-03-12T12:32:58;100740.38;;;3.15;77.66
78444;BME280;67739;52.986;8.894;2023-03-12T12:35:41;100736.84;;;3.15;78.13
78444;BME280;67739;52.986;8.894;2023-03-12T12:40:49;100726.34;;;3.09;78.67
78444;BME280;67739;52.986;8.894;2023-03-12T12:46:04;100734.19;;;3.15;79.35
78444;BME280;67739;52.986;8.894;2023-03-12T12:51:05;100743.03;;;3.15;80.02
78444;BME280;67739;52.986;8.894;2023-03-12T12:53:37;100731.56;;;3.13;79.95
78444;BME280;67739;52.986;8.894;2023-03-12T12:56:30;100733.28;;;3.16;80.33
78444;BME280;67739;52.986;8.894;2023-03-12T13:01:50;100716.56;;;3.12;80.59
78444;BME280;67739;52.986;8.894;2023-03-12T13:04:32;100717.47;;;3.11;80.51
78444;BME280;67739;52.986;8.894;2023-03-12T13:09:52;100713.09;;;3.09;80.47
78444;BME280;67739;52.986;8.894;2023-03-12T13:12:42;100705.16;;;3.07;81.13
78444;BME280;67739;52.986;8.894;2023-03-12T13:18:20;100690.16;;;3.08;81.18
78444;BME280;67739;52.986;8.894;2023-03-12T13:27:38;100673.16;;;3.18;82.68
78444;BME280;67739;52.986;8.894;2023-03-12T13:31:57;100687.16;;;3.25;81.96
78444;BME280;67739;52.986;8.894;2023-03-12T13:36:56;100683.59;;;3.27;82.01
78444;BME280;67739;52.986;8.894;2023-03-12T13:39:34;100680.03;;;3.28;82.29
78444;BME280;67739;52.986;8.894;2023-03-12T13:42:45;100680.91;;;3.29;82.13
78444;BME280;67739;52.986;8.894;2023-03-12T13:44:46;100676.50;;;3.28;82.12
78444;BME280;67739;52.986;8.894;2023-03-12T13:47:36;100674.72;;;3.28;82.21
78444;BME280;67739;52.986;8.894;2023-03-12T13:50:14;100667.66;;;3.29;83.10
78444;BME280;67739;52.986;8.894;2023-03-12T13:52:45;100656.91;;;3.35;84.05
78444;BME280;67739;52.986;8.894;2023-03-12T13:55:27;100645.28;;;3.42;83.29
78444;BME280;67739;52.986;8.894;2023-03-12T13:57:56;100644.44;;;3.40;82.85
78444;BME280;67739;52.986;8.894;2023-03-12T14:00:42;100656.00;;;3.36;82.54
78444;BME280;67739;52.986;8.894;2023-03-12T14:03:19;100663.13;;;3.32;82.55
78444;BME280;67739;52.986;8.894;2023-03-12T14:05:56;100655.25;;;3.31;83.05
78444;BME280;67739;52.986;8.894;2023-03-12T14:08:45;100655.28;;;3.29;83.48
78444;BME280;67739;52.986;8.894;2023-03-12T14:11:53;100655.28;;;3.29;83.38
78444;BME280;67739;52.986;8.894;2023-03-12T14:16:51;100664.22;;;3.24;83.54
78444;BME280;67739;52.986;8.894;2023-03-12T14:19:22;100656.31;;;3.20;83.35
78444;BME280;67739;52.986;8.894;2023-03-12T14:21:49;100651.94;;;3.18;83.81
78444;BME280;67739;52.986;8.894;2023-03-12T14:24:29;100656.44;;;3.16;84.22
78444;BME280;67739;52.986;8.894;2023-03-12T14:26:56;100654.69;;;3.15;83.89
78444;BME280;67739;52.986;8.894;2023-03-12T14:29:35;100648.56;;;3.11;84.69
78444;BME280;67739;52.986;8.894;2023-03-12T14:32:04;100648.66;;;3.05;84.48